Time;durP1;ratioP1;P1;durP2;ratioP2;P2;SDS_P1;SDS_P2;PMS_P1;PMS_P2;Temp;Humidity;BMP_temperature;BMP_pressure;BME280_temperature;BME280_humidity;BME280_pressure;Samples;Min_cycle;Max_cycle;Signal;HPM_P1;HPM_P2
2022/11/04 00:01:05;;;;;;;8.63;6.07;;;;;;;-145.14;100.00;70583.66;5011482;28;20458;-79
2022/11/04 00:03:30;;;;;;;8.50;6.77;;;;;;;-145.14;100.00;70583.66;5016684;28;20232;-79
2022/11/04 00:06:00;;;;;;;8.77;6.93;;;;;;;-145.14;100.00;70583.66;5020263;28;20436;-78
2022/11/04 00:08:25;;;;;;;9.87;6.90;;;;;;;-145.14;100.00;70583.66;5015572;28;20195;-78
2022/11/04 00:13:38;;;;;;;8.63;6.30;;;;;;;-145.14;100.00;70583.66;5021527;28;20218;-79
2022/11/04 00:18:49;;;;;;;9.60;7.30;;;;;;;-145.14;100.00;70583.66;5021987;28;20277;-78
2022/11/04 00:29:31;;;;;;;8.10;6.80;;;;;;;-145.14;100.00;70583.66;5021494;28;20457;-79
2022/11/04 00:34:41;;;;;;;10.60;7.53;;;;;;;-145.14;100.00;70583.66;5047171;28;20979;-79
2022/11/04 00:37:06;;;;;;;10.20;7.03;;;;;;;-145.14;100.00;70583.66;5021800;28;20426;-79
2022/11/04 00:39:32;;;;;;;9.70;7.07;;;;;;;-145.14;100.00;70583.66;5040124;28;20207;-81
2022/11/04 00:41:57;;;;;;;12.40;6.70;;;;;;;-145.14;100.00;70583.66;5038434;28;20208;-80
2022/11/04 00:44:23;;;;;;;8.90;6.67;;;;;;;-145.14;100.00;70583.66;5041240;28;20186;-82
2022/11/04 00:46:48;;;;;;;7.00;6.13;;;;;;;-145.14;100.00;70583.66;5000845;28;20246;-84
2022/11/04 00:49:14;;;;;;;10.60;7.53;;;;;;;-145.14;100.00;70583.66;5027757;28;20266;-79
2022/11/04 00:51:39;;;;;;;8.20;7.07;;;;;;;-145.14;100.00;70583.66;5030700;28;20213;-79
2022/11/04 00:54:05;;;;;;;8.03;7.23;;;;;;;-145.14;100.00;70583.66;5030767;28;20184;-79
2022/11/04 00:56:30;;;;;;;9.20;7.47;;;;;;;-145.14;100.00;70583.66;5035953;28;20188;-79
2022/11/04 00:58:58;;;;;;;9.80;7.37;;;;;;;-145.14;100.00;70583.66;5032071;28;20729;-78
2022/11/04 01:01:23;;;;;;;9.60;7.47;;;;;;;-145.14;100.00;70583.66;5019454;28;20957;-78
2022/11/04 01:03:51;;;;;;;8.30;7.43;;;;;;;-145.14;100.00;70583.66;5011637;28;20443;-79
2022/11/04 01:06:18;;;;;;;9.83;7.87;;;;;;;-145.14;100.00;70583.66;5024486;28;20181;-80
2022/11/04 01:08:47;;;;;;;12.10;8.60;;;;;;;-145.14;100.00;70583.66;5011159;28;20553;-78
2022/11/04 01:11:15;;;;;;;10.00;9.00;;;;;;;-145.14;100.00;70583.66;5024793;28;20459;-79
2022/11/04 01:13:41;;;;;;;9.87;8.30;;;;;;;-145.14;100.00;70583.66;5023509;28;20464;-78
2022/11/04 01:16:11;;;;;;;8.67;7.83;;;;;;;-145.14;100.00;70583.66;5011519;28;20592;-77
2022/11/04 01:18:37;;;;;;;9.57;7.67;;;;;;;-145.14;100.00;70583.66;5004846;28;20678;-78
2022/11/04 01:21:07;;;;;;;8.77;7.97;;;;;;;-145.14;100.00;70583.66;5022464;28;20542;-79
2022/11/04 01:23:33;;;;;;;8.00;7.20;;;;;;;-145.14;100.00;70583.66;5033187;28;20434;-78
2022/11/04 01:25:59;;;;;;;11.60;8.53;;;;;;;-145.14;100.00;70583.66;5024825;28;20479;-79
2022/11/04 01:28:25;;;;;;;10.20;7.97;;;;;;;-145.14;100.00;70583.66;5059398;28;20492;-79
2022/11/04 01:30:50;;;;;;;10.67;9.57;;;;;;;-145.14;100.00;70583.66;5046857;28;20212;-79
2022/11/04 01:33:16;;;;;;;10.43;9.37;;;;;;;-145.14;100.00;70583.66;5035725;28;20204;-79
2022/11/04 01:35:41;;;;;;;10.57;8.33;;;;;;;-145.14;100.00;70583.66;5059022;28;20191;-78
2022/11/04 01:38:07;;;;;;;8.57;7.70;;;;;;;-145.14;100.00;70583.66;5046346;28;20183;-78
2022/11/04 01:40:39;;;;;;;11.00;7.83;;;;;;;-145.14;100.00;70583.66;5056690;28;20208;-79
2022/11/04 01:43:19;;;;;;;10.10;7.90;;;;;;;-145.14;100.00;70583.66;5067411;22;20237;-73
2022/11/04 01:45:52;;;;;;;8.70;6.20;;;;;;;-145.14;100.00;70583.66;5047711;28;20434;-73
2022/11/04 01:48:24;;;;;;;7.37;5.50;;;;;;;-145.14;100.00;70583.66;5057385;28;20430;-73
2022/11/04 01:50:51;;;;;;;4.87;4.10;;;;;;;-145.14;100.00;70583.66;5050962;28;20462;-73
2022/11/04 01:53:27;;;;;;;3.83;3.53;;;;;;;-145.14;100.00;70583.66;5049237;28;20518;-73
2022/11/04 01:55:57;;;;;;;4.57;4.07;;;;;;;-145.14;100.00;70583.66;5045688;28;20509;-73
2022/11/04 01:58:30;;;;;;;3.67;3.30;;;;;;;-145.14;100.00;70583.66;5053200;28;20453;-73
2022/11/04 02:00:55;;;;;;;4.80;2.97;;;;;;;-145.14;100.00;70583.66;5048916;28;20453;-74
2022/11/04 02:04:24;;;;;;;2.87;2.40;;;;;;;-145.14;100.00;70583.66;5051236;28;20440;-73
2022/11/04 02:06:43;;;;;;;1.77;1.50;;;;;;;-145.14;100.00;70583.66;5054393;28;20274;-73
2022/11/04 02:09:09;;;;;;;2.90;1.77;;;;;;;-145.14;100.00;70583.66;5048510;28;20442;-73
2022/11/04 02:14:18;;;;;;;2.90;0.90;;;;;;;-145.14;100.00;70583.66;5052875;28;20432;-73
2022/11/04 02:16:47;;;;;;;2.50;0.77;;;;;;;-145.14;100.00;70583.66;5048706;28;20454;-73
2022/11/04 02:19:24;;;;;;;1.77;1.23;;;;;;;-145.14;100.00;70583.66;5037037;28;20188;-74
2022/11/04 02:22:30;;;;;;;1.83;0.73;;;;;;;-145.14;100.00;70583.66;5050783;28;20453;-73
2022/11/04 02:25:23;;;;;;;1.23;0.80;;;;;;;-145.14;100.00;70583.66;5039434;28;20450;-74
2022/11/04 02:28:22;;;;;;;1.10;0.73;;;;;;;-145.14;100.00;70583.66;5036507;28;20515;-72
2022/11/04 02:31:25;;;;;;;1.20;0.80;;;;;;;-145.14;100.00;70583.66;5031936;28;20448;-72
2022/11/04 02:34:05;;;;;;;1.57;0.70;;;;;;;-145.14;100.00;70583.66;5030018;28;20445;-71
2022/11/04 02:36:45;;;;;;;2.30;0.70;;;;;;;-145.14;100.00;70583.66;5026867;28;20494;-72
2022/11/04 02:39:31;;;;;;;0.80;0.60;;;;;;;-145.14;100.00;70583.66;5040292;28;20441;-72
2022/11/04 02:42:00;;;;;;;2.67;0.80;;;;;;;-145.14;100.00;70583.66;5045156;28;20529;-72
2022/11/04 02:44:45;;;;;;;1.63;0.63;;;;;;;-145.14;100.00;70583.66;5045845;28;20465;-72
2022/11/04 02:47:15;;;;;;;2.33;0.80;;;;;;;-145.14;100.00;70583.66;5036647;28;20511;-72
2022/11/04 02:50:04;;;;;;;3.07;0.90;;;;;;;-145.14;100.00;70583.66;5043058;28;20950;-72
2022/11/04 02:52:52;;;;;;;1.70;0.70;;;;;;;-145.14;100.00;70583.66;5045763;28;20553;-72
2022/11/04 02:55:33;;;;;;;1.57;0.73;;;;;;;-145.14;100.00;70583.66;5042355;28;20440;-72
2022/11/04 02:58:01;;;;;;;1.57;0.67;;;;;;;-145.14;100.00;70583.66;5041143;28;20447;-72
2022/11/04 03:00:29;;;;;;;2.73;0.73;;;;;;;-145.14;100.00;70583.66;5044301;28;20473;-73
2022/11/04 03:03:01;;;;;;;1.23;0.77;;;;;;;-145.14;100.00;70583.66;5040400;28;20879;-72
2022/11/04 03:05:31;;;;;;;1.57;0.60;;;;;;;-145.14;100.00;70583.66;5060448;28;20494;-72
2022/11/04 03:08:02;;;;;;;2.20;0.80;;;;;;;-145.14;100.00;70583.66;5034703;28;21113;-73
2022/11/04 03:10:31;;;;;;;4.43;1.17;;;;;;;-145.14;100.00;70583.66;5041725;28;20496;-72
2022/11/04 03:13:04;;;;;;;3.00;0.67;;;;;;;-145.14;100.00;70583.66;5047019;28;20531;-72
2022/11/04 03:15:34;;;;;;;2.10;0.60;;;;;;;-145.14;100.00;70583.66;5033023;28;20545;-72
2022/11/04 03:18:05;;;;;;;1.23;0.67;;;;;;;-145.14;100.00;70583.66;5041955;28;20477;-72
2022/11/04 03:20:31;;;;;;;0.90;0.60;;;;;;;-145.14;100.00;70583.66;5040229;28;21088;-72
2022/11/04 03:22:59;;;;;;;3.53;0.80;;;;;;;-145.14;100.00;70583.66;5040866;28;20446;-72
2022/11/04 03:25:37;;;;;;;2.20;0.70;;;;;;;-145.14;100.00;70583.66;5051301;28;20184;-72
2022/11/04 03:28:14;;;;;;;4.33;0.60;;;;;;;-145.14;100.00;70583.66;5047673;28;20938;-73
2022/11/04 03:30:46;;;;;;;2.13;0.70;;;;;;;-145.14;100.00;70583.66;5061254;28;20483;-72
2022/11/04 03:33:23;;;;;;;3.13;0.77;;;;;;;-145.14;100.00;70583.66;5060015;28;20546;-73
2022/11/04 03:35:49;;;;;;;3.30;0.90;;;;;;;-145.14;100.00;70583.66;5046911;28;20445;-73
2022/11/04 03:38:15;;;;;;;3.30;1.10;;;;;;;-145.14;100.00;70583.66;5050426;28;20445;-73
2022/11/04 03:40:40;;;;;;;0.90;0.70;;;;;;;-145.14;100.00;70583.66;5048059;28;20235;-72
2022/11/04 03:43:22;;;;;;;3.20;0.80;;;;;;;-145.14;100.00;70583.66;5046398;28;20524;-72
2022/11/04 03:45:49;;;;;;;4.50;0.73;;;;;;;-145.14;100.00;70583.66;5037750;28;20191;-72
2022/11/04 03:48:15;;;;;;;3.03;0.80;;;;;;;-145.14;100.00;70583.66;5034261;28;21923;-72
2022/11/04 03:50:43;;;;;;;4.43;1.00;;;;;;;-145.14;100.00;70583.66;5045795;28;20472;-72
2022/11/04 03:53:11;;;;;;;2.83;0.80;;;;;;;-145.14;100.00;70583.66;5040848;28;20211;-72
2022/11/04 03:55:49;;;;;;;7.03;1.03;;;;;;;-145.14;100.00;70583.66;5037519;28;20434;-74
2022/11/04 03:58:35;;;;;;;3.73;0.93;;;;;;;-145.14;100.00;70583.66;5046353;28;20436;-72
2022/11/04 04:01:22;;;;;;;5.27;1.07;;;;;;;-145.14;100.00;70583.66;5043444;28;21008;-73
2022/11/04 04:03:58;;;;;;;2.70;0.70;;;;;;;-145.14;100.00;70583.66;5040856;28;20448;-72
2022/11/04 04:06:30;;;;;;;4.00;0.83;;;;;;;-145.14;100.00;70583.66;5043244;28;20929;-72
2022/11/04 04:09:02;;;;;;;4.67;0.93;;;;;;;-145.14;100.00;70583.66;5041051;28;20477;-72
2022/11/04 04:11:39;;;;;;;3.13;1.17;;;;;;;-145.14;100.00;70583.66;5046575;28;20454;-72
2022/11/04 04:14:05;;;;;;;2.20;0.80;;;;;;;-145.14;100.00;70583.66;5034157;28;20433;-72
2022/11/04 04:16:41;;;;;;;2.17;0.60;;;;;;;-145.14;100.00;70583.66;5039467;28;20447;-72
2022/11/04 04:19:12;;;;;;;2.87;0.87;;;;;;;-145.14;100.00;70583.66;5034664;28;20265;-72
2022/11/04 04:21:50;;;;;;;4.43;1.63;;;;;;;-145.14;100.00;70583.66;5041705;28;20804;-72
2022/11/04 04:27:44;;;;;;;7.47;1.00;;;;;;;-145.14;100.00;70583.66;5040937;28;20460;-72
2022/11/04 04:29:52;;;;;;;4.77;0.97;;;;;;;-145.14;100.00;70583.66;5035584;28;20450;-72
2022/11/04 04:32:21;;;;;;;2.87;1.17;;;;;;;-145.14;100.00;70583.66;5043558;28;20547;-72
2022/11/04 04:34:47;;;;;;;1.90;0.60;;;;;;;-145.14;100.00;70583.66;5030951;28;20456;-72
2022/11/04 04:37:22;;;;;;;1.87;0.60;;;;;;;-145.14;100.00;70583.66;5038649;28;20449;-72
2022/11/04 04:45:31;;;;;;;1.97;0.70;;;;;;;-145.14;100.00;70583.66;5035592;28;20519;-72
2022/11/04 04:47:57;;;;;;;1.30;0.70;;;;;;;-145.14;100.00;70583.66;5032681;28;20574;-72
2022/11/04 04:50:26;;;;;;;3.37;0.80;;;;;;;-145.14;100.00;70583.66;5036448;28;20465;-74
2022/11/04 04:52:53;;;;;;;1.63;0.53;;;;;;;-145.14;100.00;70583.66;5030966;28;21008;-72
2022/11/04 04:55:19;;;;;;;3.80;0.70;;;;;;;-145.14;100.00;70583.66;5039500;28;20449;-72
2022/11/04 04:57:45;;;;;;;3.03;1.00;;;;;;;-145.14;100.00;70583.66;5037052;28;21154;-72
2022/11/04 05:00:17;;;;;;;2.60;0.60;;;;;;;-145.14;100.00;70583.66;5039946;28;20226;-72
2022/11/04 05:02:42;;;;;;;1.03;0.50;;;;;;;-145.14;100.00;70583.66;5052764;28;20214;-73
2022/11/04 05:05:08;;;;;;;2.83;0.90;;;;;;;-145.14;100.00;70583.66;5041548;28;20579;-71
2022/11/04 05:07:34;;;;;;;1.47;0.67;;;;;;;-145.14;100.00;70583.66;5033876;28;20195;-72
2022/11/04 05:09:59;;;;;;;1.97;0.80;;;;;;;-145.14;100.00;70583.66;5036215;28;21011;-72
2022/11/04 05:13:24;;;;;;;1.73;0.67;;;;;;;-145.14;100.00;70583.66;5033150;28;20598;-74
2022/11/04 05:15:11;;;;;;;3.00;0.80;;;;;;;-145.14;100.00;70583.66;5032694;28;20233;-73
2022/11/04 05:17:36;;;;;;;1.87;1.00;;;;;;;-145.14;100.00;70583.66;5037460;28;21198;-74
2022/11/04 05:20:02;;;;;;;2.00;0.80;;;;;;;-145.14;100.00;70583.66;5045095;28;20207;-73
2022/11/04 05:22:27;;;;;;;1.13;0.70;;;;;;;-145.14;100.00;70583.66;5047926;28;20219;-73
2022/11/04 05:24:53;;;;;;;2.83;0.70;;;;;;;-145.14;100.00;70583.66;5045597;28;21014;-74
2022/11/04 05:27:18;;;;;;;3.13;0.87;;;;;;;-145.14;100.00;70583.66;5048066;28;20192;-74
2022/11/04 05:29:43;;;;;;;1.83;0.80;;;;;;;-145.14;100.00;70583.66;5045238;28;20565;-74
2022/11/04 05:32:09;;;;;;;1.10;0.63;;;;;;;-145.14;100.00;70583.66;5037974;28;20302;-74
2022/11/04 05:34:34;;;;;;;4.03;0.90;;;;;;;-145.14;100.00;70583.66;5051005;28;20488;-72
2022/11/04 05:36:59;;;;;;;5.03;0.80;;;;;;;-145.14;100.00;70583.66;5037228;28;20301;-73
2022/11/04 05:39:25;;;;;;;4.33;1.00;;;;;;;-145.14;100.00;70583.66;5041832;28;20202;-72
2022/11/04 05:41:50;;;;;;;6.03;1.00;;;;;;;-145.14;100.00;70583.66;5045779;28;20193;-72
2022/11/04 05:44:16;;;;;;;2.53;0.70;;;;;;;-145.14;100.00;70583.66;5040797;28;20286;-72
2022/11/04 05:46:41;;;;;;;6.87;1.00;;;;;;;-145.14;100.00;70583.66;5060895;22;20250;-78
2022/11/04 05:49:07;;;;;;;4.27;1.00;;;;;;;-145.14;100.00;70583.66;5046864;28;20193;-77
2022/11/04 05:51:33;;;;;;;3.70;1.40;;;;;;;-145.14;100.00;70583.66;5057148;28;20204;-78
2022/11/04 05:53:59;;;;;;;1.20;0.60;;;;;;;-145.14;100.00;70583.66;5055545;28;20852;-76
2022/11/04 05:56:24;;;;;;;0.97;0.70;;;;;;;-145.14;100.00;70583.66;5048562;28;20218;-77
2022/11/04 05:58:50;;;;;;;2.27;0.70;;;;;;;-145.14;100.00;70583.66;5038069;28;20798;-76
2022/11/04 06:01:23;;;;;;;0.80;0.60;;;;;;;-145.14;100.00;70583.66;5041854;28;20279;-77
2022/11/04 06:03:49;;;;;;;1.83;0.80;;;;;;;-145.14;100.00;70583.66;5037901;28;20570;-77
2022/11/04 06:06:14;;;;;;;1.50;0.70;;;;;;;-145.14;100.00;70583.66;5037198;28;20474;-78
2022/11/04 06:08:40;;;;;;;1.53;0.70;;;;;;;-145.14;100.00;70583.66;5034983;28;22371;-77
2022/11/04 06:11:05;;;;;;;6.13;1.10;;;;;;;-145.14;100.00;70583.66;5032500;28;20581;-75
2022/11/04 06:13:30;;;;;;;1.73;0.70;;;;;;;-145.14;100.00;70583.66;5026563;28;20203;-77
2022/11/04 06:15:56;;;;;;;5.40;0.90;;;;;;;-145.14;100.00;70583.66;5045999;28;20217;-76
2022/11/04 06:18:21;;;;;;;2.13;0.80;;;;;;;-145.14;100.00;70583.66;5037086;28;20537;-77
2022/11/04 06:20:47;;;;;;;2.40;0.90;;;;;;;-145.14;100.00;70583.66;5032943;28;20774;-77
2022/11/04 06:23:12;;;;;;;3.03;0.70;;;;;;;-145.14;100.00;70583.66;5021539;28;20203;-77
2022/11/04 06:25:37;;;;;;;4.67;1.10;;;;;;;-145.14;100.00;70583.66;5042098;28;20196;-77
2022/11/04 06:28:03;;;;;;;4.40;1.00;;;;;;;-145.14;100.00;70583.66;5044385;28;20722;-76
2022/11/04 06:30:28;;;;;;;3.37;1.10;;;;;;;-145.14;100.00;70583.66;5040406;28;20215;-76
2022/11/04 06:32:54;;;;;;;3.17;1.23;;;;;;;-145.14;100.00;70583.66;5036529;28;20196;-76
2022/11/04 06:35:19;;;;;;;2.60;1.10;;;;;;;-145.14;100.00;70583.66;5042373;28;20643;-76
2022/11/04 06:37:44;;;;;;;0.93;0.67;;;;;;;-145.14;100.00;70583.66;5049783;28;20700;-76
2022/11/04 06:40:10;;;;;;;2.83;0.80;;;;;;;-145.14;100.00;70583.66;5048035;28;20325;-75
2022/11/04 06:42:35;;;;;;;1.53;0.90;;;;;;;-145.14;100.00;70583.66;5040819;28;20195;-75
2022/11/04 06:45:01;;;;;;;1.83;0.80;;;;;;;-145.14;100.00;70583.66;5036561;28;20195;-75
2022/11/04 06:47:26;;;;;;;2.40;0.80;;;;;;;-145.14;100.00;70583.66;5035019;28;20219;-75
2022/11/04 06:49:52;;;;;;;2.37;0.70;;;;;;;-145.14;100.00;70583.66;5046360;28;20202;-76
2022/11/04 06:52:17;;;;;;;4.73;1.17;;;;;;;-145.14;100.00;70583.66;5045796;28;20229;-77
2022/11/04 06:54:42;;;;;;;3.50;0.70;;;;;;;-145.14;100.00;70583.66;5046258;28;20223;-76
2022/11/04 06:57:10;;;;;;;1.87;0.90;;;;;;;-145.14;100.00;70583.66;5059614;28;20204;-75
2022/11/04 06:59:36;;;;;;;2.00;0.70;;;;;;;-145.14;100.00;70583.66;5044115;28;20202;-76
2022/11/04 07:02:01;;;;;;;4.87;0.87;;;;;;;-145.14;100.00;70583.66;5047552;28;20445;-76
2022/11/04 07:04:27;;;;;;;3.50;0.97;;;;;;;-145.14;100.00;70583.66;5038033;28;20192;-76
2022/11/04 07:06:52;;;;;;;2.50;0.80;;;;;;;-145.14;100.00;70583.66;5046419;28;20217;-76
2022/11/04 07:09:17;;;;;;;2.20;0.80;;;;;;;-145.14;100.00;70583.66;5042166;28;20257;-76
2022/11/04 07:11:44;;;;;;;1.50;0.80;;;;;;;-145.14;100.00;70583.66;5035150;28;21484;-75
2022/11/04 07:14:10;;;;;;;1.77;0.80;;;;;;;-145.14;100.00;70583.66;5057373;28;20192;-75
2022/11/04 07:16:36;;;;;;;3.20;0.90;;;;;;;-145.14;100.00;70583.66;5042682;28;20463;-75
2022/11/04 07:19:02;;;;;;;6.33;1.10;;;;;;;-145.14;100.00;70583.66;5053794;28;20433;-76
2022/11/04 07:21:27;;;;;;;2.57;1.50;;;;;;;-145.14;100.00;70583.66;5043063;28;20236;-76
2022/11/04 07:23:54;;;;;;;2.60;1.27;;;;;;;-145.14;100.00;70583.66;5042357;28;20462;-75
2022/11/04 07:26:19;;;;;;;3.90;1.30;;;;;;;-145.14;100.00;70583.66;5037546;28;20204;-76
2022/11/04 07:28:45;;;;;;;8.40;1.67;;;;;;;-145.14;100.00;70583.66;5027360;28;20494;-75
2022/11/04 07:31:11;;;;;;;2.70;1.57;;;;;;;-145.14;100.00;70583.66;5037431;28;20198;-75
2022/11/04 07:33:37;;;;;;;4.17;1.40;;;;;;;-145.14;100.00;70583.66;5048344;28;20758;-76
2022/11/04 07:36:04;;;;;;;3.80;1.33;;;;;;;-145.14;100.00;70583.66;5056593;28;20600;-75
2022/11/04 07:38:29;;;;;;;5.33;1.43;;;;;;;-145.14;100.00;70583.66;5034765;28;20253;-76
2022/11/04 07:40:57;;;;;;;3.20;1.27;;;;;;;-145.14;100.00;70583.66;5025220;28;21621;-76
2022/11/04 07:43:22;;;;;;;2.27;1.10;;;;;;;-145.14;100.00;70583.66;5047811;28;20191;-76
2022/11/04 07:45:58;;;;;;;5.90;1.23;;;;;;;-145.14;100.00;70583.66;5054427;28;20437;-76
2022/11/04 07:48:23;;;;;;;2.70;0.90;;;;;;;-145.14;100.00;70583.66;5042456;28;20584;-76
2022/11/04 07:50:49;;;;;;;3.07;1.00;;;;;;;-145.14;100.00;70583.66;5052809;28;20436;-76
2022/11/04 07:53:14;;;;;;;2.23;1.00;;;;;;;-145.14;100.00;70583.66;5055788;28;20204;-76
2022/11/04 07:55:40;;;;;;;1.30;0.73;;;;;;;-145.14;100.00;70583.66;5057123;28;20175;-76
2022/11/04 07:58:08;;;;;;;4.17;1.00;;;;;;;-145.14;100.00;70583.66;5050064;28;20538;-75
2022/11/04 08:00:33;;;;;;;1.87;1.40;;;;;;;-145.14;100.00;70583.66;5043888;28;21049;-75
2022/11/04 08:02:59;;;;;;;2.70;0.90;;;;;;;-145.14;100.00;70583.66;5046968;28;20467;-77
2022/11/04 08:05:24;;;;;;;2.73;1.23;;;;;;;-145.14;100.00;70583.66;5032734;28;20210;-76
2022/11/04 08:07:50;;;;;;;1.53;0.80;;;;;;;-145.14;100.00;70583.66;5041096;28;20252;-75
2022/11/04 08:10:15;;;;;;;2.40;0.90;;;;;;;-145.14;100.00;70583.66;5041869;28;20190;-76
2022/11/04 08:12:40;;;;;;;4.60;1.33;;;;;;;-145.14;100.00;70583.66;5046919;28;20213;-76
2022/11/04 08:15:06;;;;;;;2.33;0.80;;;;;;;-145.14;100.00;70583.66;5050796;28;20194;-76
2022/11/04 08:17:32;;;;;;;3.70;1.23;;;;;;;-145.14;100.00;70583.66;5044759;28;20297;-76
2022/11/04 08:19:57;;;;;;;6.93;1.10;;;;;;;-145.14;100.00;70583.66;5047044;28;20210;-75
2022/11/04 08:22:22;;;;;;;1.93;1.00;;;;;;;-145.14;100.00;70583.66;5053411;28;20195;-76
2022/11/04 08:24:48;;;;;;;4.90;1.40;;;;;;;-145.14;100.00;70583.66;5028596;28;20211;-76
2022/11/04 08:27:13;;;;;;;3.00;1.00;;;;;;;-145.14;100.00;70583.66;5033160;28;20215;-76
2022/11/04 08:29:39;;;;;;;3.37;1.03;;;;;;;-145.14;100.00;70583.66;5054470;28;20191;-76
2022/11/04 08:32:06;;;;;;;3.43;0.83;;;;;;;-145.14;100.00;70583.66;5048663;28;20207;-76
2022/11/04 08:34:31;;;;;;;3.57;1.00;;;;;;;-145.14;100.00;70583.66;5044419;28;20201;-75
2022/11/04 08:36:57;;;;;;;3.50;1.00;;;;;;;-145.14;100.00;70583.66;5050471;28;20465;-77
2022/11/04 08:39:23;;;;;;;7.53;1.20;;;;;;;-145.14;100.00;70583.66;5048232;28;20231;-77
2022/11/04 08:41:49;;;;;;;4.97;1.17;;;;;;;-145.14;100.00;70583.66;5035974;28;20190;-76
2022/11/04 08:44:15;;;;;;;4.47;1.17;;;;;;;-145.14;100.00;70583.66;5013561;28;20754;-77
2022/11/04 08:46:43;;;;;;;7.60;1.13;;;;;;;-145.14;100.00;70583.66;5031255;28;20529;-76
2022/11/04 08:49:09;;;;;;;3.00;1.40;;;;;;;-145.14;100.00;70583.66;5024914;28;20453;-76
2022/11/04 08:51:37;;;;;;;3.47;0.93;;;;;;;-145.14;100.00;70583.66;5032694;28;20443;-76
2022/11/04 08:54:04;;;;;;;2.90;1.47;;;;;;;-145.14;100.00;70583.66;5038927;28;20442;-76
2022/11/04 08:56:32;;;;;;;5.33;1.20;;;;;;;-145.14;100.00;70583.66;5054675;28;20453;-76
2022/11/04 08:58:58;;;;;;;2.87;1.10;;;;;;;-145.14;100.00;70583.66;5055655;28;20425;-77
2022/11/04 09:01:25;;;;;;;3.17;1.27;;;;;;;-145.14;100.00;70583.66;5047097;28;21008;-77
2022/11/04 09:03:51;;;;;;;3.90;1.10;;;;;;;-145.14;100.00;70583.66;5040581;28;20442;-77
2022/11/04 09:06:21;;;;;;;5.37;1.27;;;;;;;-145.14;100.00;70583.66;5046210;28;20476;-75
2022/11/04 09:08:47;;;;;;;3.27;1.20;;;;;;;-145.14;100.00;70583.66;5044839;28;20438;-76
2022/11/04 09:11:14;;;;;;;3.27;1.97;;;;;;;-145.14;100.00;70583.66;5052637;28;21001;-76
2022/11/04 09:13:39;;;;;;;8.03;1.60;;;;;;;-145.14;100.00;70583.66;5040010;28;21214;-76
2022/11/04 09:16:06;;;;;;;4.10;1.47;;;;;;;-145.14;100.00;70583.66;5044457;28;20462;-76
2022/11/04 09:18:32;;;;;;;5.67;1.87;;;;;;;-145.14;100.00;70583.66;5041772;28;20644;-76
2022/11/04 09:21:01;;;;;;;4.43;1.20;;;;;;;-145.14;100.00;70583.66;5054207;28;20447;-76
2022/11/04 09:23:27;;;;;;;2.80;1.10;;;;;;;-145.14;100.00;70583.66;5047403;28;20178;-77
2022/11/04 09:25:52;;;;;;;3.50;1.57;;;;;;;-145.14;100.00;70583.66;5044121;28;20456;-78
2022/11/04 09:28:18;;;;;;;5.73;1.30;;;;;;;-145.14;100.00;70583.66;5047639;28;20677;-77
2022/11/04 09:30:43;;;;;;;4.00;1.17;;;;;;;-145.14;100.00;70583.66;5041190;28;20242;-77
2022/11/04 09:33:09;;;;;;;2.70;1.20;;;;;;;-145.14;100.00;70583.66;5040808;28;20226;-77
2022/11/04 09:35:34;;;;;;;3.30;1.10;;;;;;;-145.14;100.00;70583.66;5046720;28;20191;-78
2022/11/04 09:38:00;;;;;;;4.17;1.33;;;;;;;-145.14;100.00;70583.66;5049758;28;20705;-78
2022/11/04 09:40:26;;;;;;;1.77;0.80;;;;;;;-145.14;100.00;70583.66;5031277;28;20195;-75
2022/11/04 09:43:04;;;;;;;5.80;1.30;;;;;;;-145.14;100.00;70583.66;5014491;28;20472;-77
2022/11/04 09:45:32;;;;;;;6.17;1.20;;;;;;;-145.14;100.00;70583.66;5048504;28;20476;-77
2022/11/04 09:48:02;;;;;;;2.70;1.00;;;;;;;-145.14;100.00;70583.66;5042822;28;20461;-77
2022/11/04 09:50:31;;;;;;;5.23;1.30;;;;;;;-145.14;100.00;70583.66;5044333;28;20581;-77
2022/11/04 09:53:06;;;;;;;5.73;1.40;;;;;;;-145.14;100.00;70583.66;5043911;28;20476;-77
2022/11/04 09:55:49;;;;;;;4.00;1.13;;;;;;;-145.14;100.00;70583.66;5042800;28;20438;-78
2022/11/04 09:58:14;;;;;;;2.63;1.20;;;;;;;-145.14;100.00;70583.66;5030004;28;20802;-78
2022/11/04 10:00:46;;;;;;;6.50;1.97;;;;;;;-145.14;100.00;70583.66;5055667;28;20520;-78
2022/11/04 10:03:42;;;;;;;5.00;1.60;;;;;;;-145.14;100.00;70583.66;5025653;28;20262;-77
2022/11/04 10:06:30;;;;;;;2.93;1.40;;;;;;;-145.14;100.00;70583.66;5034100;28;20501;-77
2022/11/04 10:09:20;;;;;;;4.60;1.10;;;;;;;-145.14;100.00;70583.66;5043621;28;21213;-77
2022/11/04 10:11:54;;;;;;;3.27;1.13;;;;;;;-145.14;100.00;70583.66;5051790;28;20438;-78
2022/11/04 10:14:41;;;;;;;5.00;1.57;;;;;;;-145.14;100.00;70583.66;5040836;28;20426;-78
2022/11/04 10:17:25;;;;;;;6.40;1.40;;;;;;;-145.14;100.00;70583.66;5039994;28;20453;-77
2022/11/04 10:20:02;;;;;;;3.27;1.13;;;;;;;-145.14;100.00;70583.66;5040887;28;20425;-79
2022/11/04 10:22:28;;;;;;;2.67;1.20;;;;;;;-145.14;100.00;70583.66;5042768;28;20957;-78
2022/11/04 10:24:53;;;;;;;2.23;1.00;;;;;;;-145.14;100.00;70583.66;5051287;28;20927;-79
2022/11/04 10:27:24;;;;;;;16.87;1.83;;;;;;;-145.14;100.00;70583.66;5021144;28;20325;-78
2022/11/04 10:30:00;;;;;;;2.83;1.03;;;;;;;-145.14;100.00;70583.66;5040061;28;20536;-79
2022/11/04 10:32:51;;;;;;;5.43;1.13;;;;;;;-145.14;100.00;70583.66;5034000;28;20968;-79
2022/11/04 10:35:35;;;;;;;4.87;1.20;;;;;;;-145.14;100.00;70583.66;5041812;28;20453;-78
2022/11/04 10:38:22;;;;;;;6.47;1.30;;;;;;;-145.14;100.00;70583.66;5036421;28;20458;-78
2022/11/04 10:40:51;;;;;;;6.70;1.47;;;;;;;-145.14;100.00;70583.66;5040214;28;20533;-78
2022/11/04 10:43:25;;;;;;;4.10;1.10;;;;;;;-145.14;100.00;70583.66;5040254;28;20434;-79
2022/11/04 10:45:51;;;;;;;3.53;0.93;;;;;;;-145.14;100.00;70583.66;5055557;28;20487;-80
2022/11/04 10:48:28;;;;;;;4.70;0.90;;;;;;;-145.14;100.00;70583.66;5035676;28;20870;-78
2022/11/04 10:50:58;;;;;;;6.27;1.10;;;;;;;-145.14;100.00;70583.66;5043094;28;20193;-79
2022/11/04 10:53:31;;;;;;;4.60;1.13;;;;;;;-145.14;100.00;70583.66;5047121;28;20474;-79
2022/11/04 10:56:18;;;;;;;2.80;0.97;;;;;;;-145.14;100.00;70583.66;5050529;28;20978;-79
2022/11/04 10:58:46;;;;;;;3.90;0.87;;;;;;;-145.14;100.00;70583.66;5054928;28;20427;-79
2022/11/04 11:01:24;;;;;;;5.83;1.10;;;;;;;-145.14;100.00;70583.66;5052342;28;20525;-79
2022/11/04 11:03:49;;;;;;;4.87;1.00;;;;;;;-145.14;100.00;70583.66;5041925;28;20487;-79
2022/11/04 11:06:24;;;;;;;5.63;1.00;;;;;;;-145.14;100.00;70583.66;5033544;28;20480;-80
2022/11/04 11:08:51;;;;;;;4.77;1.20;;;;;;;-145.14;100.00;70583.66;5055504;28;20667;-80
2022/11/04 11:11:35;;;;;;;4.53;1.10;;;;;;;-145.14;100.00;70583.66;5043766;28;20446;-80
2022/11/04 11:14:00;;;;;;;4.97;0.93;;;;;;;-145.14;100.00;70583.66;5034664;28;20484;-82
2022/11/04 11:16:27;;;;;;;3.27;1.00;;;;;;;-145.14;100.00;70583.66;5041449;28;20457;-77
2022/11/04 11:19:11;;;;;;;3.50;1.20;;;;;;;-145.14;100.00;70583.66;5044419;28;20181;-79
2022/11/04 11:21:47;;;;;;;4.90;1.00;;;;;;;-145.14;100.00;70583.66;5056249;28;20417;-80
2022/11/04 11:24:34;;;;;;;5.17;1.10;;;;;;;-145.14;100.00;70583.66;5045243;28;20445;-78
2022/11/04 11:27:10;;;;;;;3.07;0.90;;;;;;;-145.14;100.00;70583.66;5045808;28;20470;-80
2022/11/04 11:29:39;;;;;;;3.27;0.90;;;;;;;-145.14;100.00;70583.66;5054040;28;20430;-79
2022/11/04 11:32:18;;;;;;;2.70;0.93;;;;;;;-145.14;100.00;70583.66;5029400;28;20550;-79
2022/11/04 11:34:46;;;;;;;1.87;0.83;;;;;;;-145.14;100.00;70583.66;5029598;28;20504;-78
2022/11/04 11:37:23;;;;;;;2.50;1.00;;;;;;;-145.14;100.00;70583.66;5051392;28;20461;-78
2022/11/04 11:39:49;;;;;;;3.57;0.87;;;;;;;-145.14;100.00;70583.66;5040511;28;20445;-78
2022/11/04 11:42:18;;;;;;;3.03;0.93;;;;;;;-145.14;100.00;70583.66;5051887;28;20434;-77
2022/11/04 11:44:53;;;;;;;1.70;0.90;;;;;;;-145.14;100.00;70583.66;5055079;28;20187;-78
2022/11/04 11:47:41;;;;;;;2.60;0.90;;;;;;;-145.14;100.00;70583.66;5051272;28;20463;-78
2022/11/04 11:50:12;;;;;;;2.97;0.80;;;;;;;-145.14;100.00;70583.66;5051803;28;20472;-78